Time;durP1;ratioP1;P1;durP2;ratioP2;P2;SDS_P1;SDS_P2;PMS_P1;PMS_P2;Temp;Humidity;BMP_temperature;BMP_pressure;BME280_temperature;BME280_humidity;BME280_pressure;Samples;Min_cycle;Max_cycle;Signal;HPM_P1;HPM_P2
2024/01/01 00:01:28;;;;;;;149.00;118.97;;;;;;;4.93;65.46;94966.81;5073814;28;20224;-67
2024/01/01 00:03:54;;;;;;;154.70;106.27;;;;;;;4.96;65.50;94958.75;5071426;28;20185;-74
2024/01/01 00:06:19;;;;;;;147.47;120.03;;;;;;;4.94;65.50;94961.44;5072017;28;20220;-71
2024/01/01 00:08:44;;;;;;;154.13;120.60;;;;;;;4.85;65.34;94960.41;5080354;28;20220;-71
2024/01/01 00:11:10;;;;;;;166.10;128.67;;;;;;;4.96;65.71;94953.53;5074286;28;20232;-72
2024/01/01 00:13:35;;;;;;;151.67;112.97;;;;;;;5.01;66.12;94956.59;5074645;28;20283;-70
2024/01/01 00:16:01;;;;;;;159.90;129.83;;;;;;;5.02;65.68;94958.25;5071516;28;20204;-76
2024/01/01 00:18:26;;;;;;;159.80;124.77;;;;;;;5.03;65.51;94950.31;5073521;28;20173;-75
2024/01/01 00:20:52;;;;;;;155.17;115.87;;;;;;;4.93;65.81;94958.97;5072592;28;20217;-71
2024/01/01 00:23:17;;;;;;;163.60;119.17;;;;;;;4.97;65.54;94963.00;5071410;28;20271;-69
2024/01/01 00:25:42;;;;;;;156.83;114.93;;;;;;;4.97;66.00;94963.84;5074974;28;20209;-68
2024/01/01 00:28:08;;;;;;;157.40;125.50;;;;;;;4.99;66.07;94972.34;5074054;28;20181;-72
2024/01/01 00:30:34;;;;;;;149.97;122.30;;;;;;;5.17;64.99;94975.31;5072261;28;20185;-70
2024/01/01 00:32:59;;;;;;;153.23;116.47;;;;;;;4.88;65.20;94974.97;5076248;28;20230;-69
2024/01/01 00:35:25;;;;;;;150.13;111.53;;;;;;;4.74;65.57;94975.19;5072931;28;20564;-71
2024/01/01 00:37:50;;;;;;;143.87;116.50;;;;;;;4.83;65.12;94970.09;5055518;28;20215;-72
2024/01/01 00:40:16;;;;;;;150.83;115.17;;;;;;;4.83;65.04;94969.28;5077173;28;20193;-67
2024/01/01 00:42:43;;;;;;;152.47;119.03;;;;;;;4.78;65.09;94968.78;5072722;28;20173;-67
2024/01/01 00:45:09;;;;;;;153.30;119.90;;;;;;;4.70;65.78;94974.59;5074971;28;20266;-73
2024/01/01 00:47:34;;;;;;;148.70;120.53;;;;;;;4.71;65.51;94976.25;5068676;28;20276;-70
2024/01/01 00:50:00;;;;;;;153.37;121.73;;;;;;;4.74;65.67;94978.63;5075838;28;20315;-70
2024/01/01 00:52:26;;;;;;;151.33;121.40;;;;;;;4.69;65.58;94975.53;5072967;28;20220;-69
2024/01/01 00:54:52;;;;;;;151.20;122.10;;;;;;;4.75;65.43;94964.66;5069509;28;20219;-75
2024/01/01 00:57:17;;;;;;;151.73;125.90;;;;;;;4.70;65.61;94971.16;5068379;28;20217;-71
2024/01/01 00:59:43;;;;;;;157.43;127.43;;;;;;;4.59;65.76;94964.16;5067774;28;20286;-74
2024/01/01 01:02:08;;;;;;;163.87;131.37;;;;;;;4.58;65.68;94971.16;5070329;28;20285;-70
2024/01/01 01:04:34;;;;;;;165.80;131.57;;;;;;;4.49;66.19;94971.88;5073437;28;20299;-69
2024/01/01 01:06:59;;;;;;;167.63;137.00;;;;;;;4.53;66.12;94969.84;5078836;28;20179;-71
2024/01/01 01:09:25;;;;;;;172.73;138.17;;;;;;;4.59;66.44;94964.16;5071085;28;20217;-71
2024/01/01 01:11:50;;;;;;;176.60;122.63;;;;;;;4.60;65.95;94953.66;5072716;28;20213;-70
2024/01/01 01:14:15;;;;;;;170.43;129.23;;;;;;;4.60;66.86;94955.44;5079237;28;20225;-68
2024/01/01 01:16:41;;;;;;;170.47;134.87;;;;;;;4.61;67.00;94944.88;5072860;28;20292;-68
2024/01/01 01:19:07;;;;;;;169.27;135.07;;;;;;;4.59;66.90;94944.16;5078571;28;20181;-69
2024/01/01 01:21:32;;;;;;;169.67;134.10;;;;;;;4.62;66.98;94935.28;5059983;28;20184;-70
2024/01/01 01:23:58;;;;;;;172.87;134.77;;;;;;;4.59;67.09;94938.13;5070803;28;20214;-69
2024/01/01 01:26:24;;;;;;;166.30;115.47;;;;;;;4.57;66.85;94937.41;5071903;28;20213;-74
2024/01/01 01:28:50;;;;;;;160.73;127.50;;;;;;;4.59;66.91;94941.56;5075236;28;20221;-74
2024/01/01 01:31:15;;;;;;;165.60;129.00;;;;;;;4.49;66.49;94938.00;5071030;28;20180;-75
2024/01/01 01:33:41;;;;;;;168.10;131.27;;;;;;;4.52;66.46;94942.16;5075606;28;20273;-75
2024/01/01 01:36:08;;;;;;;161.50;126.17;;;;;;;4.54;66.75;94935.84;5074858;28;20244;-69
2024/01/01 01:38:35;;;;;;;162.87;124.67;;;;;;;4.42;66.80;94940.25;5080996;28;20299;-69
2024/01/01 01:41:01;;;;;;;162.00;128.10;;;;;;;4.56;66.82;94928.78;5070521;28;20252;-69
2024/01/01 01:43:26;;;;;;;164.33;126.43;;;;;;;4.54;67.22;94922.84;5079447;28;20232;-69
2024/01/01 01:45:52;;;;;;;157.37;120.10;;;;;;;4.60;66.94;94929.38;5073697;28;20169;-69
2024/01/01 01:48:18;;;;;;;161.73;127.20;;;;;;;4.32;67.07;94935.84;5075163;28;20220;-68
2024/01/01 01:50:45;;;;;;;161.43;126.43;;;;;;;4.35;67.21;94925.19;5080752;28;20244;-68
2024/01/01 01:53:12;;;;;;;159.43;126.60;;;;;;;4.53;66.34;94929.00;5075448;28;20227;-69
2024/01/01 01:55:43;;;;;;;163.87;126.13;;;;;;;4.45;66.87;94927.94;5077904;28;20224;-69
2024/01/01 01:58:10;;;;;;;159.73;123.17;;;;;;;4.44;67.03;94929.72;5076929;28;20216;-68
2024/01/01 02:00:37;;;;;;;150.77;120.47;;;;;;;4.40;66.92;94918.69;5076690;28;20180;-68
2024/01/01 02:03:06;;;;;;;151.10;119.17;;;;;;;4.12;67.65;94937.34;5080524;28;20215;-69
2024/01/01 02:05:31;;;;;;;157.17;125.63;;;;;;;4.27;67.05;94937.97;5058392;28;20220;-69
2024/01/01 02:07:57;;;;;;;149.93;120.77;;;;;;;4.20;66.78;94933.22;5075613;28;20225;-69
2024/01/01 02:10:23;;;;;;;156.87;124.57;;;;;;;4.30;66.44;94929.91;5081730;28;20220;-69
2024/01/01 02:12:48;;;;;;;151.87;119.20;;;;;;;4.18;66.43;94935.09;5076293;28;20181;-68
2024/01/01 02:15:13;;;;;;;149.47;123.33;;;;;;;4.25;67.13;94937.25;5074227;28;20229;-68
2024/01/01 02:17:39;;;;;;;162.97;127.33;;;;;;;4.09;67.18;94934.94;5075616;28;20219;-69
2024/01/01 02:20:05;;;;;;;159.90;114.30;;;;;;;4.19;66.61;94928.94;5074609;28;20249;-68
2024/01/01 02:22:36;;;;;;;159.67;124.10;;;;;;;4.23;66.79;94931.34;5062248;28;20225;-69
2024/01/01 02:25:02;;;;;;;158.23;126.87;;;;;;;4.26;66.70;94941.53;5072018;28;20188;-67
2024/01/01 02:27:27;;;;;;;164.37;128.47;;;;;;;4.17;67.21;94948.22;5081147;28;20188;-68
2024/01/01 02:29:53;;;;;;;160.20;127.07;;;;;;;4.22;67.67;94951.31;5076001;28;20209;-68
2024/01/01 02:32:18;;;;;;;164.17;127.07;;;;;;;4.35;67.20;94953.81;5079114;28;20220;-68
2024/01/01 02:34:44;;;;;;;157.63;123.10;;;;;;;4.33;67.55;94955.72;5073923;28;20307;-68
2024/01/01 02:37:09;;;;;;;149.30;108.13;;;;;;;4.22;67.06;94948.72;5069200;28;20184;-67
2024/01/01 02:39:35;;;;;;;151.90;111.03;;;;;;;4.37;66.79;94952.78;5077031;28;20189;-68
2024/01/01 02:42:00;;;;;;;150.70;108.80;;;;;;;4.32;66.72;94962.69;5053401;28;20263;-68
2024/01/01 02:44:25;;;;;;;142.13;103.60;;;;;;;4.29;66.83;94955.13;5070824;28;20259;-68
2024/01/01 02:46:51;;;;;;;143.60;104.67;;;;;;;4.43;66.46;94956.69;5074189;28;20284;-69
2024/01/01 02:49:16;;;;;;;151.83;106.23;;;;;;;4.40;66.25;94954.31;5081430;28;20244;-68
2024/01/01 02:51:43;;;;;;;144.67;108.60;;;;;;;4.37;66.24;94944.97;5074127;28;20233;-69
2024/01/01 02:54:08;;;;;;;137.10;99.20;;;;;;;4.28;66.33;94937.03;5071513;28;20228;-69
2024/01/01 02:56:34;;;;;;;145.47;112.87;;;;;;;4.27;66.69;94935.34;5074523;28;20216;-68
2024/01/01 02:58:59;;;;;;;147.90;100.77;;;;;;;4.24;66.74;94933.81;5062918;28;20312;-68
2024/01/01 03:01:25;;;;;;;147.23;100.40;;;;;;;4.25;66.98;94935.50;5075736;28;20299;-68
2024/01/01 03:03:50;;;;;;;142.97;97.90;;;;;;;4.21;66.90;94918.44;5075162;28;20173;-69
2024/01/01 03:06:19;;;;;;;140.47;109.10;;;;;;;4.21;67.67;94915.84;5074427;28;20212;-69
2024/01/01 03:08:44;;;;;;;144.37;111.77;;;;;;;4.12;67.91;94925.16;5072417;28;20220;-67
2024/01/01 03:11:10;;;;;;;148.63;112.83;;;;;;;4.20;67.84;94917.59;5075920;28;20220;-68
2024/01/01 03:13:36;;;;;;;147.40;113.70;;;;;;;4.19;67.51;94915.09;5070620;28;20296;-69
2024/01/01 03:16:02;;;;;;;148.93;113.23;;;;;;;4.18;67.85;94913.47;5083276;28;20272;-68
2024/01/01 03:18:28;;;;;;;147.37;110.00;;;;;;;4.11;67.97;94907.06;5076690;28;20258;-68
2024/01/01 03:20:54;;;;;;;141.60;105.53;;;;;;;4.19;67.54;94902.09;5074068;28;20216;-68
2024/01/01 03:23:19;;;;;;;136.73;92.93;;;;;;;4.23;67.85;94898.34;5076734;28;20217;-68
2024/01/01 03:25:45;;;;;;;138.40;96.97;;;;;;;4.07;67.99;94897.84;5078019;28;20242;-68
2024/01/01 03:28:10;;;;;;;132.63;92.10;;;;;;;4.06;68.26;94880.53;5068293;28;20191;-69
2024/01/01 03:30:35;;;;;;;135.07;99.73;;;;;;;4.08;68.49;94886.47;5076565;28;20221;-68
2024/01/01 03:33:02;;;;;;;144.90;112.80;;;;;;;3.95;68.51;94887.38;5071267;28;20216;-69
2024/01/01 03:35:31;;;;;;;142.23;107.07;;;;;;;4.02;67.96;94881.75;5080499;28;20303;-68
2024/01/01 03:37:59;;;;;;;130.43;100.80;;;;;;;3.90;68.13;94884.31;5076312;28;20263;-68
2024/01/01 03:40:25;;;;;;;148.90;112.67;;;;;;;4.13;67.07;94892.16;5073958;28;20217;-69
2024/01/01 03:42:50;;;;;;;143.67;108.20;;;;;;;3.90;67.66;94886.06;5076497;28;20182;-68
2024/01/01 03:45:16;;;;;;;148.23;111.00;;;;;;;3.93;67.55;94878.88;5076103;28;20212;-68
2024/01/01 03:47:42;;;;;;;140.07;107.00;;;;;;;3.96;67.14;94876.06;5076284;28;20240;-68
2024/01/01 03:50:08;;;;;;;139.80;104.33;;;;;;;3.99;67.37;94875.00;5073218;28;20237;-68
2024/01/01 03:52:33;;;;;;;137.97;102.97;;;;;;;3.98;67.22;94878.50;5079993;28;20212;-68
2024/01/01 03:54:59;;;;;;;138.07;104.13;;;;;;;4.00;66.90;94884.44;5069589;28;20212;-68
2024/01/01 03:57:24;;;;;;;134.47;102.90;;;;;;;4.01;67.17;94874.84;5073404;28;20228;-69
2024/01/01 03:59:50;;;;;;;127.43;98.10;;;;;;;3.91;67.13;94883.38;5075889;28;20265;-68
2024/01/01 04:02:15;;;;;;;130.30;95.10;;;;;;;3.92;67.66;94876.38;5078762;28;20209;-68
2024/01/01 04:04:44;;;;;;;122.80;92.17;;;;;;;3.75;68.29;94880.25;5072309;28;20213;-69
2024/01/01 04:07:11;;;;;;;121.10;91.53;;;;;;;3.82;67.81;94878.00;5075151;28;20212;-69
2024/01/01 04:09:36;;;;;;;121.60;90.30;;;;;;;3.87;67.56;94879.31;5080576;28;20212;-69
2024/01/01 04:12:02;;;;;;;126.43;92.73;;;;;;;3.78;67.93;94872.22;5072484;28;20245;-69
2024/01/01 04:14:28;;;;;;;122.37;92.80;;;;;;;3.87;67.91;94881.09;5072967;28;20231;-69
2024/01/01 04:16:53;;;;;;;119.40;83.63;;;;;;;3.85;67.94;94883.84;5075250;28;20220;-69
2024/01/01 04:19:18;;;;;;;108.80;83.23;;;;;;;3.90;67.96;94879.13;5079190;28;20271;-69
2024/01/01 04:21:44;;;;;;;112.00;78.20;;;;;;;3.88;68.13;94886.19;5061542;28;20213;-68
2024/01/01 04:24:09;;;;;;;100.47;73.27;;;;;;;4.03;67.87;94879.00;5073912;28;20295;-68
2024/01/01 04:26:37;;;;;;;88.83;59.07;;;;;;;3.97;68.34;94880.28;5068212;28;20289;-67
2024/01/01 04:29:03;;;;;;;85.67;63.30;;;;;;;4.07;68.29;94885.66;5075870;28;20212;-69
2024/01/01 04:31:28;;;;;;;97.27;67.67;;;;;;;4.10;68.01;94895.81;5079872;28;20261;-69
2024/01/01 04:33:54;;;;;;;94.53;68.37;;;;;;;4.06;67.91;94888.34;5076920;28;20200;-69
2024/01/01 04:36:21;;;;;;;87.47;59.00;;;;;;;4.17;67.66;94886.63;5069751;28;20217;-69
2024/01/01 04:38:46;;;;;;;87.67;66.60;;;;;;;4.07;67.79;94882.22;5067187;28;20216;-68
2024/01/01 04:41:12;;;;;;;84.70;58.77;;;;;;;4.04;67.81;94880.69;5076235;28;20213;-70
2024/01/01 04:43:39;;;;;;;87.57;59.20;;;;;;;3.87;68.09;94879.31;5070730;28;20232;-67
2024/01/01 04:46:04;;;;;;;72.43;50.87;;;;;;;3.88;68.51;94873.19;5077834;28;20180;-69
2024/01/01 04:48:30;;;;;;;95.33;64.43;;;;;;;3.95;67.99;94881.34;5074164;28;20196;-69
2024/01/01 04:50:55;;;;;;;93.87;70.50;;;;;;;3.98;68.03;94874.16;5069931;28;20231;-68
2024/01/01 04:53:21;;;;;;;93.40;62.80;;;;;;;4.01;67.77;94872.25;5070471;28;20225;-69
2024/01/01 04:55:46;;;;;;;90.17;61.53;;;;;;;3.95;68.10;94874.38;5078108;28;20217;-69
2024/01/01 04:58:12;;;;;;;86.50;62.30;;;;;;;3.97;67.62;94871.66;5076184;28;20184;-69
2024/01/01 05:00:37;;;;;;;103.03;70.57;;;;;;;4.09;67.05;94865.56;5072055;28;20216;-69
2024/01/01 05:03:03;;;;;;;105.50;74.47;;;;;;;3.88;67.09;94874.97;5076850;28;20212;-68
2024/01/01 05:05:28;;;;;;;97.80;78.50;;;;;;;3.84;67.18;94879.56;5070826;28;20272;-68
2024/01/01 05:07:54;;;;;;;105.10;78.87;;;;;;;3.82;67.24;94875.41;5075445;28;20246;-69
2024/01/01 05:10:19;;;;;;;108.70;80.90;;;;;;;3.73;67.27;94874.31;5075345;28;20220;-68
2024/01/01 05:12:45;;;;;;;106.70;76.73;;;;;;;3.74;67.20;94878.56;5077501;28;20276;-68
2024/01/01 05:15:13;;;;;;;107.77;81.47;;;;;;;3.68;67.57;94879.03;5076655;28;20221;-68
2024/01/01 05:17:39;;;;;;;92.20;69.47;;;;;;;3.54;67.47;94878.28;5057681;28;20238;-69
2024/01/01 05:20:05;;;;;;;90.87;68.47;;;;;;;3.59;67.51;94883.16;5073157;28;20247;-68
2024/01/01 05:22:31;;;;;;;90.47;66.47;;;;;;;3.45;68.69;94878.13;5066497;28;20220;-68
2024/01/01 05:24:56;;;;;;;97.10;73.63;;;;;;;3.51;68.09;94875.09;5074519;28;20177;-68
2024/01/01 05:27:22;;;;;;;93.97;72.90;;;;;;;3.60;67.92;94866.59;5076958;28;20315;-69
2024/01/01 05:29:48;;;;;;;94.07;69.00;;;;;;;3.49;67.98;94854.38;5074311;28;20224;-69
2024/01/01 05:32:14;;;;;;;85.00;68.30;;;;;;;3.48;67.68;94865.75;5049465;28;20244;-68
2024/01/01 05:34:41;;;;;;;86.63;58.70;;;;;;;3.53;67.38;94866.22;5068738;28;20231;-69
2024/01/01 05:37:06;;;;;;;89.17;71.80;;;;;;;3.56;67.32;94869.56;5082543;28;20202;-68
2024/01/01 05:39:32;;;;;;;97.17;73.07;;;;;;;3.52;67.37;94864.56;5068195;28;20189;-68
2024/01/01 05:41:58;;;;;;;99.00;76.17;;;;;;;3.49;67.54;94863.97;5061582;28;20215;-68
2024/01/01 05:44:23;;;;;;;94.83;72.67;;;;;;;3.41;67.50;94856.72;5071601;28;20217;-69
2024/01/01 05:46:49;;;;;;;98.23;78.00;;;;;;;3.47;67.54;94848.47;5078620;28;20215;-68
2024/01/01 05:49:15;;;;;;;94.47;74.93;;;;;;;3.45;67.85;94860.78;5071462;28;20181;-68
2024/01/01 05:51:41;;;;;;;101.27;77.20;;;;;;;3.48;67.51;94847.53;5059692;28;20400;-69
2024/01/01 05:54:06;;;;;;;116.43;87.83;;;;;;;3.49;67.60;94854.38;5065677;28;20216;-68
2024/01/01 05:56:31;;;;;;;107.83;80.70;;;;;;;3.54;67.59;94856.66;5081001;28;20217;-68
2024/01/01 05:58:57;;;;;;;104.23;82.37;;;;;;;3.57;67.29;94859.03;5073987;28;20230;-69
2024/01/01 06:01:22;;;;;;;112.63;85.83;;;;;;;3.53;67.66;94865.41;5074651;28;20223;-69
2024/01/01 06:03:48;;;;;;;113.43;85.43;;;;;;;3.55;67.60;94863.50;5075421;28;20188;-69
2024/01/01 06:06:13;;;;;;;111.77;86.73;;;;;;;3.58;67.25;94870.25;5081220;28;20217;-69
2024/01/01 06:08:39;;;;;;;111.03;85.43;;;;;;;3.60;67.38;94860.56;5071286;28;20271;-69
2024/01/01 06:11:04;;;;;;;116.80;84.23;;;;;;;3.49;67.83;94869.16;5073914;28;20217;-68
2024/01/01 06:13:30;;;;;;;113.33;81.07;;;;;;;3.53;67.93;94860.22;5072396;28;20233;-68
2024/01/01 06:15:55;;;;;;;118.07;89.27;;;;;;;3.68;67.37;94868.63;5071531;28;20199;-68
2024/01/01 06:18:25;;;;;;;123.27;91.20;;;;;;;3.46;68.29;94853.78;5071776;28;20217;-68
2024/01/01 06:20:50;;;;;;;122.77;91.70;;;;;;;3.60;67.87;94860.56;5064374;28;20282;-70
2024/01/01 06:23:16;;;;;;;121.53;79.27;;;;;;;3.73;67.63;94853.53;5081104;28;20307;-67
2024/01/01 06:25:41;;;;;;;112.23;76.53;;;;;;;3.61;67.94;94841.41;5073416;28;20259;-68
2024/01/01 06:28:07;;;;;;;107.73;77.80;;;;;;;3.64;67.64;94839.44;5069456;28;20193;-68
2024/01/01 06:30:34;;;;;;;111.17;73.60;;;;;;;3.70;67.83;94851.97;5080415;28;20177;-67
2024/01/01 06:33:03;;;;;;;107.93;73.97;;;;;;;3.74;67.99;94853.41;5085991;28;20217;-68
2024/01/01 06:35:30;;;;;;;102.53;70.53;;;;;;;3.86;67.88;94850.84;5074036;28;20233;-69
2024/01/01 06:37:59;;;;;;;106.27;73.83;;;;;;;3.90;67.48;94847.91;5071987;28;20225;-67
2024/01/01 06:40:25;;;;;;;108.37;73.27;;;;;;;3.88;67.82;94852.38;5071869;28;20244;-69
2024/01/01 06:42:50;;;;;;;107.13;73.50;;;;;;;3.88;67.64;94849.78;5078981;28;20216;-69
2024/01/01 06:45:15;;;;;;;104.33;70.43;;;;;;;3.84;67.61;94853.53;5081412;28;20217;-69
2024/01/01 06:47:41;;;;;;;108.10;74.20;;;;;;;3.83;67.76;94833.69;5077286;28;20239;-69
2024/01/01 06:50:07;;;;;;;104.07;72.83;;;;;;;3.83;67.70;94831.09;5073253;28;20338;-69
2024/01/01 06:52:32;;;;;;;95.93;69.40;;;;;;;3.84;68.10;94824.94;5088444;28;20312;-70
2024/01/01 06:54:58;;;;;;;89.00;60.83;;;;;;;4.12;67.50;94820.25;5075286;28;20213;-70
2024/01/01 06:57:24;;;;;;;82.07;56.53;;;;;;;4.06;67.54;94820.69;5070714;28;20247;-68
2024/01/01 06:59:50;;;;;;;81.03;54.53;;;;;;;4.15;67.43;94827.81;5065074;28;20282;-68
2024/01/01 07:02:16;;;;;;;79.57;53.27;;;;;;;4.36;67.35;94835.75;5071664;28;20228;-69
2024/01/01 07:04:42;;;;;;;68.80;49.17;;;;;;;4.16;67.50;94826.88;5080461;28;20213;-69
2024/01/01 07:07:07;;;;;;;84.40;57.97;;;;;;;4.29;67.31;94834.56;5075486;28;20181;-68
2024/01/01 07:09:32;;;;;;;78.27;54.60;;;;;;;4.32;67.38;94827.34;5071249;28;20181;-69
2024/01/01 07:11:58;;;;;;;74.67;54.57;;;;;;;4.38;67.20;94832.09;5078698;28;20225;-69
2024/01/01 07:14:24;;;;;;;72.00;52.27;;;;;;;4.54;66.71;94821.28;5075280;28;20225;-68
2024/01/01 07:16:53;;;;;;;74.60;52.37;;;;;;;4.60;66.47;94825.22;5073043;28;20212;-68
2024/01/01 07:19:19;;;;;;;69.50;49.70;;;;;;;4.54;66.11;94831.69;5067546;28;20188;-68
2024/01/01 07:21:44;;;;;;;77.30;56.20;;;;;;;4.23;67.52;94835.88;5079037;28;20181;-69
2024/01/01 07:24:10;;;;;;;83.33;58.00;;;;;;;4.47;67.33;94834.94;5081986;28;20330;-68
2024/01/01 07:26:35;;;;;;;82.53;60.20;;;;;;;4.57;66.70;94822.81;5077242;28;20227;-68
2024/01/01 07:29:01;;;;;;;79.40;61.47;;;;;;;4.56;66.88;94819.41;5074264;28;20256;-69
2024/01/01 07:31:26;;;;;;;83.33;59.60;;;;;;;4.67;66.21;94826.38;5080528;28;20303;-69
2024/01/01 07:33:52;;;;;;;77.13;52.57;;;;;;;4.65;66.28;94828.25;5076514;28;20209;-69
2024/01/01 07:36:17;;;;;;;71.73;52.10;;;;;;;4.93;65.84;94833.91;5069507;28;20242;-69
2024/01/01 07:38:43;;;;;;;72.23;52.00;;;;;;;4.94;65.47;94845.97;5059733;28;20214;-68
2024/01/01 07:41:08;;;;;;;75.20;55.20;;;;;;;4.84;65.93;94838.91;5074992;28;20228;-69
2024/01/01 07:43:33;;;;;;;73.90;51.93;;;;;;;5.03;66.15;94845.25;5075127;28;20217;-68
2024/01/01 07:45:59;;;;;;;75.43;53.90;;;;;;;5.05;65.34;94844.19;5075005;28;20189;-69
2024/01/01 07:48:24;;;;;;;66.87;48.67;;;;;;;5.17;65.47;94842.38;5072351;28;20217;-69
2024/01/01 07:50:50;;;;;;;65.07;48.43;;;;;;;5.33;64.92;94852.41;5069363;28;20320;-69
2024/01/01 07:53:15;;;;;;;68.77;52.13;;;;;;;5.40;65.03;94856.19;5067300;28;20217;-68
2024/01/01 07:55:41;;;;;;;64.33;50.20;;;;;;;5.45;64.81;94853.16;5083253;28;20212;-69
2024/01/01 07:58:06;;;;;;;69.23;49.40;;;;;;;5.47;64.48;94856.50;5072165;28;20191;-68
2024/01/01 08:00:32;;;;;;;68.77;50.03;;;;;;;5.61;63.97;94852.75;5077456;28;20278;-67
2024/01/01 08:02:58;;;;;;;71.57;54.40;;;;;;;5.65;64.00;94862.81;5074736;28;20228;-70
2024/01/01 08:05:23;;;;;;;74.87;52.87;;;;;;;5.58;63.89;94859.03;5076395;28;20219;-69
2024/01/01 08:07:49;;;;;;;68.27;50.57;;;;;;;5.49;64.03;94860.63;5074566;28;20245;-69
2024/01/01 08:10:15;;;;;;;67.20;51.77;;;;;;;5.51;63.97;94863.13;5071517;28;20192;-70
2024/01/01 08:12:41;;;;;;;72.87;54.23;;;;;;;5.53;63.40;94876.84;5083145;28;20221;-68
2024/01/01 08:15:07;;;;;;;76.03;54.53;;;;;;;5.26;64.10;94864.25;5069768;28;20229;-69
2024/01/01 08:17:32;;;;;;;71.17;54.97;;;;;;;5.28;64.80;94857.16;5080707;28;20220;-69
2024/01/01 08:19:57;;;;;;;76.07;54.87;;;;;;;5.31;64.50;94846.47;5078162;28;20228;-69
2024/01/01 08:22:23;;;;;;;73.17;56.73;;;;;;;5.45;64.06;94843.59;5073666;28;20217;-70
2024/01/01 08:24:48;;;;;;;75.17;56.07;;;;;;;5.55;64.11;94848.88;5076020;28;20184;-70
2024/01/01 08:27:14;;;;;;;67.53;51.00;;;;;;;5.56;64.04;94847.94;5057596;28;20205;-69
2024/01/01 08:29:39;;;;;;;74.90;50.87;;;;;;;5.56;64.38;94847.09;5075320;28;20221;-70
2024/01/01 08:32:05;;;;;;;64.37;49.40;;;;;;;5.66;64.32;94845.38;5072204;28;20212;-69
2024/01/01 08:34:31;;;;;;;61.07;45.60;;;;;;;5.68;64.60;94848.69;5082405;28;20227;-70
2024/01/01 08:36:59;;;;;;;62.17;46.47;;;;;;;5.75;64.09;94844.63;5074391;28;20261;-69
2024/01/01 08:39:25;;;;;;;59.60;47.10;;;;;;;5.74;64.67;94856.00;5071368;28;20227;-69
2024/01/01 08:41:50;;;;;;;63.00;48.90;;;;;;;5.74;64.85;94849.00;5073871;28;20221;-68
2024/01/01 08:44:16;;;;;;;63.07;48.17;;;;;;;5.92;64.09;94857.09;5074654;28;20291;-68
2024/01/01 08:46:41;;;;;;;69.73;51.67;;;;;;;5.59;64.99;94855.50;5074214;28;20242;-69
2024/01/01 08:49:07;;;;;;;61.80;49.30;;;;;;;5.56;65.51;94855.75;5071350;28;20189;-69
2024/01/01 08:51:33;;;;;;;59.73;48.40;;;;;;;5.75;65.35;94868.13;5072778;28;20236;-69
2024/01/01 08:53:58;;;;;;;63.47;47.10;;;;;;;5.83;64.70;94846.63;5080002;28;20260;-69
2024/01/01 08:56:23;;;;;;;63.80;48.00;;;;;;;5.91;64.88;94839.81;5075526;28;20255;-69
2024/01/01 08:58:49;;;;;;;62.27;47.33;;;;;;;5.97;64.63;94848.94;5068541;28;20216;-69
2024/01/01 09:01:14;;;;;;;60.57;46.13;;;;;;;5.80;65.05;94852.91;5058471;28;20197;-71
2024/01/01 09:03:40;;;;;;;59.33;46.60;;;;;;;5.74;65.37;94837.75;5069334;28;20181;-69
2024/01/01 09:06:05;;;;;;;61.57;46.97;;;;;;;5.90;65.25;94847.75;5069602;28;20212;-68
2024/01/01 09:08:31;;;;;;;59.27;45.80;;;;;;;5.68;65.58;94843.47;5075827;28;20224;-71
2024/01/01 09:10:57;;;;;;;62.23;45.30;;;;;;;5.84;65.79;94849.09;5071828;28;20277;-69
2024/01/01 09:13:22;;;;;;;57.43;44.77;;;;;;;5.95;65.50;94833.38;5073314;28;20223;-68
2024/01/01 09:15:48;;;;;;;57.87;43.87;;;;;;;6.10;65.01;94833.91;5066933;28;20185;-69
2024/01/01 09:18:14;;;;;;;56.00;43.93;;;;;;;6.24;64.64;94818.84;5074291;28;20208;-69
2024/01/01 09:20:41;;;;;;;58.40;42.17;;;;;;;6.45;63.88;94816.19;5075303;28;20262;-71
2024/01/01 09:23:07;;;;;;;54.77;42.90;;;;;;;6.46;63.68;94810.00;5081326;28;20212;-70
2024/01/01 09:25:34;;;;;;;58.90;46.27;;;;;;;6.51;63.75;94819.09;5077684;28;20212;-69
2024/01/01 09:27:59;;;;;;;62.70;47.00;;;;;;;6.73;63.44;94822.47;5075809;28;20317;-69
2024/01/01 09:30:25;;;;;;;61.60;47.20;;;;;;;6.84;62.64;94822.34;5077099;28;20280;-69
2024/01/01 09:32:50;;;;;;;59.57;46.73;;;;;;;6.83;62.72;94811.09;5067264;28;20223;-75
2024/01/01 09:35:16;;;;;;;63.57;49.37;;;;;;;6.89;62.55;94798.44;5074810;28;20225;-75
2024/01/01 09:37:41;;;;;;;65.77;50.60;;;;;;;7.12;61.62;94794.63;5073777;28;20248;-76
2024/01/01 09:40:08;;;;;;;58.63;47.43;;;;;;;7.09;61.77;94784.44;5073162;28;20314;-76
2024/01/01 09:42:34;;;;;;;60.20;46.23;;;;;;;7.10;61.67;94793.13;5076073;28;20217;-76
2024/01/01 09:44:59;;;;;;;54.87;44.90;;;;;;;7.08;61.96;94795.84;5069548;28;20224;-75
2024/01/01 09:47:25;;;;;;;52.00;40.23;;;;;;;7.12;61.89;94788.59;5073034;28;20217;-75
2024/01/01 09:49:50;;;;;;;47.57;37.03;;;;;;;7.22;61.74;94792.03;5076270;28;20228;-74
2024/01/01 09:52:16;;;;;;;48.63;36.57;;;;;;;7.21;62.21;94787.75;5073843;28;20208;-77
2024/01/01 09:54:42;;;;;;;47.73;36.20;;;;;;;7.12;62.23;94791.19;5079303;28;20207;-75
2024/01/01 09:57:07;;;;;;;46.17;35.37;;;;;;;7.20;62.61;94789.53;5078680;28;20220;-75
2024/01/01 09:59:34;;;;;;;50.80;39.53;;;;;;;7.01;63.15;94785.13;5078356;28;20234;-75
2024/01/01 10:02:08;;;;;;;42.43;34.20;;;;;;;7.17;62.66;94786.38;5077932;28;20223;-74
2024/01/01 10:04:37;;;;;;;40.70;33.07;;;;;;;7.29;62.78;94785.28;5077555;28;20185;-75
2024/01/01 10:07:03;;;;;;;41.03;32.20;;;;;;;7.23;62.85;94783.22;5077999;28;20185;-76
2024/01/01 10:09:29;;;;;;;38.30;31.60;;;;;;;7.35;62.62;94787.38;5077782;28;20220;-76
2024/01/01 10:12:13;;;;;;;45.40;34.93;;;;;;;7.31;62.37;94770.28;5078336;28;20218;-76
2024/01/01 10:14:49;;;;;;;41.80;32.73;;;;;;;7.47;62.26;94751.41;5076573;28;20224;-76
2024/01/01 10:17:19;;;;;;;40.73;31.70;;;;;;;7.44;61.98;94749.06;5076950;28;20223;-76
2024/01/01 10:19:52;;;;;;;38.63;31.17;;;;;;;7.44;62.70;94742.06;5079464;28;20213;-75
2024/01/01 10:22:19;;;;;;;42.37;34.53;;;;;;;7.66;62.04;94737.47;5070022;28;20199;-76
2024/01/01 10:24:48;;;;;;;39.27;32.87;;;;;;;7.53;62.15;94734.31;5068808;28;20204;-76
2024/01/01 10:27:19;;;;;;;39.60;32.63;;;;;;;7.33;63.15;94725.69;5063007;28;20205;-76
2024/01/01 10:29:48;;;;;;;38.67;31.57;;;;;;;7.55;62.69;94722.75;5056504;28;20254;-75
2024/01/01 10:32:18;;;;;;;38.77;29.73;;;;;;;7.67;62.47;94732.13;5068088;28;20225;-77
2024/01/01 10:34:47;;;;;;;32.27;24.73;;;;;;;7.46;63.09;94721.81;5081349;28;20233;-75
2024/01/01 10:37:14;;;;;;;32.53;25.33;;;;;;;7.51;62.61;94726.59;5082367;28;20181;-76
2024/01/01 10:39:41;;;;;;;29.07;23.63;;;;;;;7.44;62.33;94726.34;5078473;28;20279;-76
2024/01/01 10:42:09;;;;;;;27.70;21.90;;;;;;;7.34;62.91;94724.72;5075026;28;20255;-76
2024/01/01 10:44:34;;;;;;;28.80;24.70;;;;;;;7.44;62.87;94728.97;5088145;28;20234;-76
2024/01/01 10:47:06;;;;;;;28.50;23.30;;;;;;;7.56;62.56;94726.19;5078216;28;20288;-74
2024/01/01 10:49:32;;;;;;;28.47;23.00;;;;;;;7.62;62.31;94720.41;5071497;28;20193;-76
2024/01/01 10:52:35;;;;;;;31.60;24.83;;;;;;;7.60;62.97;94731.00;5076296;28;20274;-78
2024/01/01 10:55:19;;;;;;;29.43;23.77;;;;;;;7.64;63.32;94721.06;5080844;28;20612;-75
2024/01/01 10:58:11;;;;;;;28.03;22.30;;;;;;;8.06;62.26;94715.44;5073288;28;20221;-75
2024/01/01 11:00:41;;;;;;;26.33;21.00;;;;;;;8.18;61.46;94709.06;5078585;28;20354;-76
2024/01/01 11:03:11;;;;;;;26.67;22.50;;;;;;;8.21;61.17;94702.72;5079851;28;20291;-69
2024/01/01 11:05:37;;;;;;;24.50;18.97;;;;;;;8.45;60.79;94692.56;5085663;28;20217;-73
2024/01/01 11:08:02;;;;;;;21.77;18.00;;;;;;;8.54;59.96;94683.00;5073373;28;20233;-71
2024/01/01 11:10:41;;;;;;;21.83;17.57;;;;;;;8.65;60.25;94693.25;5078348;28;20249;-68
2024/01/01 11:13:33;;;;;;;23.63;19.67;;;;;;;8.77;59.94;94702.56;5061815;28;20284;-68
2024/01/01 11:15:59;;;;;;;24.60;19.97;;;;;;;8.81;59.73;94696.03;5074511;28;20313;-68